Time;durP1;ratioP1;P1;durP2;ratioP2;P2;SDS_P1;SDS_P2;PMS_P1;PMS_P2;Temp;Humidity;BMP_temperature;BMP_pressure;BME280_temperature;BME280_humidity;BME280_pressure;Samples;Min_cycle;Max_cycle;Signal;HPM_P1;HPM_P2
2020/12/29 00:01:39;;;;;;;151.73;82.90;;;;;;;5.85;95.60;100085.63;5011568;28;20022;-89
2020/12/29 00:04:09;;;;;;;55.75;26.75;;;;;;;5.54;97.76;100075.41;5019568;28;20112;-89
2020/12/29 00:06:42;;;;;;;55.20;26.83;;;;;;;5.57;98.21;100085.56;5031293;28;20025;-88
2020/12/29 00:09:07;;;;;;;56.92;35.67;;;;;;;5.49;99.04;100081.25;5031090;28;20029;-89
2020/12/29 00:11:33;;;;;;;32.10;23.23;;;;;;;6.11;95.94;100072.69;5028315;28;20032;-89
2020/12/29 00:13:58;;;;;;;16.85;6.35;;;;;;;6.47;93.49;100081.41;5022413;28;20515;-89
2020/12/29 00:16:23;;;;;;;12.55;5.43;;;;;;;6.61;92.11;100078.66;5012677;28;20026;-89
2020/12/29 00:18:49;;;;;;;8.52;4.90;;;;;;;6.55;92.25;100084.69;5011088;28;20474;-88
2020/12/29 00:21:19;;;;;;;244.90;95.43;;;;;;;6.68;91.68;100091.06;5011276;28;20109;-89
2020/12/29 00:23:45;;;;;;;13.38;5.05;;;;;;;6.74;90.88;100090.28;5015874;28;20025;-89
2020/12/29 00:26:10;;;;;;;61.72;32.53;;;;;;;6.17;92.81;100093.00;5031038;28;20017;-89
2020/12/29 00:28:36;;;;;;;56.55;37.28;;;;;;;6.12;93.68;100092.75;5031006;28;20471;-88
2020/12/29 00:31:01;;;;;;;105.57;41.97;;;;;;;6.38;92.62;100093.94;5031080;28;20025;-89
2020/12/29 00:33:27;;;;;;;18.02;8.15;;;;;;;6.53;91.92;100102.53;5028771;28;20087;-89
2020/12/29 00:35:52;;;;;;;209.57;70.93;;;;;;;6.49;91.50;100103.13;5011254;28;20026;-90
2020/12/29 00:38:18;;;;;;;86.80;36.13;;;;;;;6.49;91.14;100108.41;5011052;28;20018;-89
2020/12/29 00:40:43;;;;;;;22.75;9.98;;;;;;;6.44;91.70;100119.53;5011355;28;20396;-90
2020/12/29 00:43:08;;;;;;;77.38;29.90;;;;;;;6.26;92.77;100127.94;5037831;28;20021;-89
2020/12/29 00:45:34;;;;;;;64.85;26.08;;;;;;;6.53;91.60;100120.19;5031482;28;20329;-89
2020/12/29 00:47:59;;;;;;;52.92;22.00;;;;;;;6.49;91.64;100109.22;5034648;28;20563;-90
2020/12/29 00:50:25;;;;;;;15.65;6.50;;;;;;;6.63;91.21;100108.31;5035779;28;20037;-89
2020/12/29 00:52:51;;;;;;;7.75;3.00;;;;;;;6.78;89.96;100104.72;5034739;28;20021;-89
2020/12/29 00:55:16;;;;;;;16.20;8.43;;;;;;;6.76;89.74;100102.28;5017961;28;20439;-89
2020/12/29 00:57:42;;;;;;;28.65;13.88;;;;;;;6.18;92.87;100093.81;5014550;28;20030;-89
2020/12/29 01:00:07;;;;;;;26.77;14.13;;;;;;;6.48;90.98;100090.97;5031597;28;20033;-90
2020/12/29 01:02:33;;;;;;;15.93;6.20;;;;;;;6.39;91.92;100080.56;5034487;28;20112;-89
2020/12/29 01:04:58;;;;;;;22.33;8.63;;;;;;;6.25;92.54;100067.47;5020691;28;20137;-89
2020/12/29 01:07:23;;;;;;;8.07;3.83;;;;;;;6.37;91.85;100068.56;5014474;28;20024;-89
2020/12/29 01:09:49;;;;;;;6.60;2.17;;;;;;;6.52;90.84;100056.06;5031621;28;20025;-89
2020/12/29 01:12:14;;;;;;;6.57;3.00;;;;;;;6.40;91.35;100060.25;5033261;28;20025;-89
2020/12/29 01:14:40;;;;;;;10.23;4.45;;;;;;;6.54;90.79;100053.25;5033606;28;20104;-90
2020/12/29 01:17:05;;;;;;;10.13;4.88;;;;;;;6.47;90.71;100041.84;5034125;28;20025;-89
2020/12/29 01:19:30;;;;;;;14.00;5.85;;;;;;;6.46;90.51;100035.75;5033640;28;20080;-90
2020/12/29 01:21:56;;;;;;;12.93;4.65;;;;;;;6.47;90.52;100036.56;5025995;28;20028;-90
2020/12/29 01:24:21;;;;;;;17.52;7.60;;;;;;;6.50;90.16;100039.59;5014254;28;20022;-89
2020/12/29 01:26:47;;;;;;;16.08;4.18;;;;;;;6.51;89.89;100027.25;5012838;28;20106;-89
2020/12/29 01:29:12;;;;;;;4.88;3.42;;;;;;;6.51;89.54;100030.72;5027859;28;20509;-89
2020/12/29 01:31:38;;;;;;;7.47;4.40;;;;;;;6.51;89.37;100020.16;5043389;28;20017;-89
2020/12/29 01:34:03;;;;;;;7.85;4.20;;;;;;;6.46;89.51;100013.84;5045245;28;20109;-89
2020/12/29 01:36:29;;;;;;;7.82;2.15;;;;;;;6.81;87.81;100010.13;5040074;28;20053;-89
2020/12/29 01:38:55;;;;;;;5.90;2.38;;;;;;;6.79;87.48;100004.22;5043340;28;20075;-89
2020/12/29 01:41:22;;;;;;;5.82;2.10;;;;;;;7.06;86.23;99994.53;5044217;28;20447;-89
2020/12/29 01:43:48;;;;;;;6.63;1.65;;;;;;;7.27;85.30;100006.75;5043646;28;20035;-89
2020/12/29 01:46:14;;;;;;;7.82;1.92;;;;;;;7.16;85.63;100015.28;5043833;28;20017;-89
2020/12/29 01:48:40;;;;;;;7.45;2.28;;;;;;;7.01;85.63;100012.81;5043089;28;20398;-89
2020/12/29 01:51:07;;;;;;;8.60;2.53;;;;;;;6.84;86.06;100028.19;5041537;28;20033;-89
2020/12/29 01:53:33;;;;;;;10.73;4.35;;;;;;;6.85;86.81;100029.00;5043155;28;20017;-89
2020/12/29 01:55:59;;;;;;;4.43;2.08;;;;;;;6.57;87.35;100022.00;5034392;28;20029;-89
2020/12/29 01:58:25;;;;;;;2.65;0.85;;;;;;;6.75;87.62;100025.94;5024653;28;20036;-86
2020/12/29 02:00:51;;;;;;;4.57;1.70;;;;;;;6.72;87.09;100023.66;5038713;28;20079;-89
2020/12/29 02:03:16;;;;;;;5.47;2.67;;;;;;;5.95;90.89;100021.03;5042940;28;20116;-89
2020/12/29 02:05:47;;;;;;;4.97;2.13;;;;;;;6.62;88.09;100029.31;5035461;28;20035;-89
2020/12/29 02:08:13;;;;;;;2.80;1.98;;;;;;;6.34;89.14;100030.19;5040567;28;20495;-89
2020/12/29 02:10:41;;;;;;;9.05;3.88;;;;;;;6.06;90.31;100039.97;5036696;28;20099;-89
2020/12/29 02:13:07;;;;;;;5.30;2.08;;;;;;;5.12;92.86;100040.16;5043386;28;20106;-89
2020/12/29 02:15:32;;;;;;;8.52;3.60;;;;;;;5.96;92.69;100035.88;5039638;28;20121;-89
2020/12/29 02:17:58;;;;;;;4.43;2.00;;;;;;;6.26;90.43;100025.06;5038524;28;20029;-89
2020/12/29 02:20:23;;;;;;;3.22;1.60;;;;;;;6.41;89.88;100027.59;5037898;28;20041;-89
2020/12/29 02:22:49;;;;;;;6.07;1.85;;;;;;;6.31;90.04;100027.94;5038944;28;20125;-89
2020/12/29 02:25:14;;;;;;;8.60;3.63;;;;;;;5.62;92.82;100035.75;5041517;28;20031;-89
2020/12/29 02:27:48;;;;;;;6.00;3.10;;;;;;;5.27;94.80;100039.09;5043145;28;20020;-89
2020/12/29 02:30:15;;;;;;;5.20;2.47;;;;;;;5.10;96.17;100039.53;5040208;28;20541;-88
2020/12/29 02:32:40;;;;;;;7.35;2.78;;;;;;;5.25;96.16;100030.56;5041093;28;20013;-88
2020/12/29 02:35:10;;;;;;;4.78;2.28;;;;;;;5.26;95.36;100026.09;5042846;28;20136;-89
2020/12/29 02:37:36;;;;;;;5.72;3.28;;;;;;;5.49;94.51;100036.47;5037992;28;20029;-88
2020/12/29 02:40:39;;;;;;;7.65;2.25;;;;;;;5.20;97.05;100026.84;5033795;28;20021;-89
2020/12/29 02:43:13;;;;;;;8.52;2.72;;;;;;;6.01;92.72;100022.09;5034327;28;20119;-89
2020/12/29 02:45:38;;;;;;;4.32;2.83;;;;;;;6.40;91.01;100033.88;5026585;28;20032;-88
2020/12/29 02:48:04;;;;;;;12.82;4.60;;;;;;;6.34;90.91;100042.59;5043001;28;20021;-88
2020/12/29 02:50:31;;;;;;;11.80;4.60;;;;;;;6.48;89.92;100049.56;5041221;28;20475;-89
2020/12/29 02:52:57;;;;;;;17.08;7.97;;;;;;;6.61;90.47;100048.81;5044667;28;20032;-88
2020/12/29 02:55:23;;;;;;;13.10;7.90;;;;;;;6.83;89.37;100049.50;5042967;28;20021;-88
2020/12/29 02:57:48;;;;;;;4.47;1.85;;;;;;;6.94;89.58;100042.84;5041637;28;20033;-89
2020/12/29 03:00:36;;;;;;;27.73;11.60;;;;;;;7.11;88.98;100038.84;5041660;28;20021;-88
2020/12/29 03:03:01;;;;;;;7.97;2.58;;;;;;;7.23;88.39;100034.59;5037749;28;20578;-90
2020/12/29 03:05:27;;;;;;;4.95;1.60;;;;;;;7.14;88.78;100037.59;5029344;28;20033;-88
2020/12/29 03:07:53;;;;;;;2.95;1.20;;;;;;;7.31;87.81;100036.22;5027652;28;20013;-89
2020/12/29 03:10:18;;;;;;;5.18;0.93;;;;;;;7.36;88.06;100023.25;5052398;22;20094;-76
2020/12/29 03:12:46;;;;;;;2.55;0.50;;;;;;;7.43;87.61;100029.34;5041210;28;20217;-76
2020/12/29 03:17:48;;;;;;;4.45;0.98;;;;;;;7.60;86.66;100027.13;5039128;28;20116;-89
2020/12/29 03:20:13;;;;;;;4.95;1.30;;;;;;;7.43;87.08;100029.34;5027747;28;20037;-89
2020/12/29 03:22:41;;;;;;;5.13;1.20;;;;;;;7.38;87.67;100023.03;5016205;28;20100;-89
2020/12/29 03:25:06;;;;;;;4.40;1.90;;;;;;;7.32;87.64;100027.28;5032946;28;20032;-89
2020/12/29 03:27:32;;;;;;;6.28;2.47;;;;;;;7.28;87.68;100036.63;5035111;28;20013;-89
2020/12/29 03:29:57;;;;;;;5.28;2.28;;;;;;;7.28;88.11;100037.44;5052522;28;20474;-90
2020/12/29 03:32:23;;;;;;;7.65;2.75;;;;;;;7.25;88.14;100029.09;5052807;28;20053;-90
2020/12/29 03:34:50;;;;;;;7.03;2.22;;;;;;;7.19;88.22;100028.06;5034663;28;20111;-90
2020/12/29 03:37:17;;;;;;;5.03;1.42;;;;;;;7.23;88.22;100029.31;5018430;28;20628;-90
2020/12/29 03:39:43;;;;;;;1.52;0.60;;;;;;;7.31;88.08;100036.22;5053009;28;20082;-89
2020/12/29 03:42:10;;;;;;;4.63;1.80;;;;;;;7.38;87.81;100037.03;5034852;28;20108;-90
2020/12/29 03:44:37;;;;;;;3.40;0.80;;;;;;;7.40;86.90;100050.88;5034538;28;20060;-90
2020/12/29 03:47:03;;;;;;;1.83;0.60;;;;;;;7.53;86.41;100050.91;5052907;28;20017;-89
2020/12/29 03:49:29;;;;;;;2.28;0.50;;;;;;;7.46;86.16;100054.53;5034732;28;20044;-89
2020/12/29 03:51:54;;;;;;;6.32;1.08;;;;;;;7.38;86.66;100058.19;5034643;28;20059;-89
2020/12/29 03:54:21;;;;;;;1.33;0.52;;;;;;;7.26;87.44;100070.34;5034428;28;20032;-89
2020/12/29 03:56:47;;;;;;;5.88;1.20;;;;;;;7.16;87.78;100052.25;5033721;28;20044;-90
2020/12/29 03:59:13;;;;;;;1.42;0.50;;;;;;;7.21;87.63;100063.03;5036885;28;20537;-89
2020/12/29 04:01:38;;;;;;;2.60;0.68;;;;;;;7.13;87.57;100068.50;5052749;28;20139;-90
2020/12/29 04:04:04;;;;;;;6.57;2.05;;;;;;;6.70;90.09;100070.56;5034489;28;20496;-90
2020/12/29 04:06:30;;;;;;;4.80;1.83;;;;;;;6.88;89.21;100058.47;5034226;28;20478;-90
2020/12/29 04:08:56;;;;;;;6.00;1.83;;;;;;;6.68;90.10;100049.63;5034461;28;20095;-89
2020/12/29 04:11:23;;;;;;;5.43;2.05;;;;;;;6.51;90.31;100051.00;5033815;28;20128;-89
2020/12/29 04:13:50;;;;;;;6.10;2.67;;;;;;;6.54;90.82;100050.63;5015128;28;20038;-90
2020/12/29 04:16:18;;;;;;;4.10;2.30;;;;;;;6.21;90.55;100068.88;4994917;28;20042;-90
2020/12/29 04:18:44;;;;;;;7.22;2.30;;;;;;;6.57;90.80;100053.66;5011420;28;20029;-89
2020/12/29 04:21:11;;;;;;;6.60;2.58;;;;;;;6.36;91.00;100051.94;5012648;28;20030;-89
2020/12/29 04:23:39;;;;;;;11.32;5.07;;;;;;;6.23;92.15;100065.03;5032215;28;20403;-90
2020/12/29 04:26:10;;;;;;;21.25;9.00;;;;;;;6.44;91.57;100074.69;5015202;28;20022;-90
2020/12/29 04:28:36;;;;;;;13.20;5.25;;;;;;;6.48;90.86;100065.41;5012283;28;20491;-91
2020/12/29 04:31:02;;;;;;;7.25;2.88;;;;;;;6.81;89.51;100059.47;5016271;28;20021;-89
2020/12/29 04:33:28;;;;;;;4.72;2.08;;;;;;;6.63;90.18;100057.34;5015232;28;20064;-90
2020/12/29 04:35:54;;;;;;;4.45;1.35;;;;;;;6.78;90.03;100057.22;5014912;28;20034;-90
2020/12/29 04:38:19;;;;;;;29.67;13.98;;;;;;;6.70;89.96;100050.28;5016188;28;20399;-90
2020/12/29 04:40:46;;;;;;;23.10;9.68;;;;;;;6.77;90.05;100051.09;4998680;28;20042;-90
2020/12/29 04:43:16;;;;;;;26.38;12.05;;;;;;;6.94;88.90;100058.69;5035201;28;20504;-89
2020/12/29 04:45:41;;;;;;;14.23;6.35;;;;;;;6.92;88.78;100055.44;5024958;28;20075;-89
2020/12/29 04:48:08;;;;;;;7.93;3.42;;;;;;;6.95;88.11;100050.56;5019119;28;20065;-89
2020/12/29 04:50:34;;;;;;;5.57;1.25;;;;;;;7.14;87.71;100054.28;5024920;28;20040;-89
2020/12/29 04:53:02;;;;;;;8.52;2.40;;;;;;;7.56;85.68;100066.34;5034412;28;20022;-90
2020/12/29 04:55:30;;;;;;;4.57;0.73;;;;;;;7.35;86.35;100063.84;5030761;28;20030;-89
2020/12/29 04:57:58;;;;;;;3.65;0.77;;;;;;;7.59;85.04;100075.69;5030811;28;20029;-89
2020/12/29 05:00:26;;;;;;;17.33;5.55;;;;;;;7.53;84.71;100089.72;5022872;28;20048;-90
2020/12/29 05:02:53;;;;;;;13.10;4.85;;;;;;;7.71;83.98;100095.22;5014703;28;20500;-89
2020/12/29 05:05:21;;;;;;;9.00;4.32;;;;;;;7.62;84.19;100085.84;5017619;28;20029;-90
2020/12/29 05:07:47;;;;;;;7.35;3.85;;;;;;;7.31;85.29;100074.03;5018224;28;20021;-89
2020/12/29 05:10:13;;;;;;;6.18;2.22;;;;;;;7.43;84.97;100079.53;5026535;28;20406;-89
2020/12/29 05:12:51;;;;;;;6.28;2.42;;;;;;;7.44;84.44;100081.16;5015517;28;20052;-89
2020/12/29 05:15:20;;;;;;;7.05;4.03;;;;;;;7.36;85.17;100075.28;5017916;28;20525;-89
2020/12/29 05:17:48;;;;;;;4.95;3.17;;;;;;;7.48;84.21;100077.09;5014006;28;20415;-89
2020/12/29 05:20:14;;;;;;;7.47;2.17;;;;;;;7.98;81.73;100085.47;5005551;28;20030;-89
2020/12/29 05:22:41;;;;;;;3.05;0.40;;;;;;;8.36;79.45;100098.06;5011446;28;20037;-90
2020/12/29 05:25:07;;;;;;;6.75;0.63;;;;;;;8.61;78.28;100103.53;5025624;28;20049;-89
2020/12/29 05:27:37;;;;;;;3.42;0.30;;;;;;;8.59;77.90;100110.03;5023803;28;20017;-90
2020/12/29 05:30:06;;;;;;;6.18;2.97;;;;;;;8.48;77.95;100122.09;5016607;28;20076;-90
2020/12/29 05:32:37;;;;;;;3.20;0.32;;;;;;;8.57;77.85;100133.28;5018516;28;20482;-90
2020/12/29 05:35:09;;;;;;;2.17;0.20;;;;;;;8.63;77.70;100143.84;5026545;28;20060;-89
2020/12/29 05:37:35;;;;;;;3.95;0.20;;;;;;;8.64;77.48;100137.53;5014989;28;20034;-88
2020/12/29 05:40:22;;;;;;;2.30;0.40;;;;;;;8.74;76.64;100126.50;4998511;28;20038;-90
2020/12/29 05:43:09;;;;;;;4.38;1.90;;;;;;;8.63;77.06;100127.16;5023031;28;20065;-89
2020/12/29 05:45:37;;;;;;;6.78;2.53;;;;;;;8.57;77.93;100127.97;5018011;28;20072;-89
2020/12/29 05:48:04;;;;;;;4.88;0.90;;;;;;;8.73;76.87;100130.19;5014689;28;20072;-90
2020/12/29 05:50:32;;;;;;;3.05;1.45;;;;;;;8.77;76.54;100139.31;5027319;28;20038;-88
2020/12/29 05:53:11;;;;;;;5.38;0.75;;;;;;;8.71;77.54;100137.50;5019033;28;20606;-89
2020/12/29 05:55:36;;;;;;;8.68;3.53;;;;;;;8.70;76.92;100149.94;5013846;28;20030;-89
2020/12/29 05:58:09;;;;;;;11.75;5.22;;;;;;;8.49;77.81;100147.53;4999161;28;20041;-89
2020/12/29 06:00:36;;;;;;;14.90;4.90;;;;;;;8.52;77.76;100154.25;5014466;28;20030;-89
2020/12/29 06:03:03;;;;;;;47.50;24.85;;;;;;;8.45;78.38;100159.56;5018708;28;20084;-89
2020/12/29 06:05:31;;;;;;;51.88;27.75;;;;;;;8.59;77.46;100168.28;5010663;28;20038;-90
2020/12/29 06:08:06;;;;;;;61.38;29.45;;;;;;;8.46;77.92;100177.06;5010285;28;20491;-88
2020/12/29 06:10:35;;;;;;;34.90;17.13;;;;;;;8.66;77.05;100179.69;5020103;28;20030;-89
2020/12/29 06:13:26;;;;;;;85.28;35.10;;;;;;;8.69;76.93;100181.91;5022403;28;20542;-89
2020/12/29 06:15:57;;;;;;;23.00;8.85;;;;;;;8.73;77.19;100192.91;5029117;28;20034;-89
2020/12/29 06:18:33;;;;;;;135.80;53.67;;;;;;;8.70;76.70;100186.19;5023053;28;20487;-90
2020/12/29 06:21:06;;;;;;;95.35;39.95;;;;;;;8.77;76.79;100184.31;5005319;28;20060;-89
2020/12/29 06:23:42;;;;;;;50.40;19.65;;;;;;;8.69;76.71;100200.47;5030946;28;20048;-89
2020/12/29 06:26:09;;;;;;;13.93;5.85;;;;;;;8.41;78.22;100205.97;5024187;28;20028;-90
2020/12/29 06:28:49;;;;;;;21.73;9.43;;;;;;;8.60;77.38;100207.78;5026276;28;20384;-90
2020/12/29 06:31:27;;;;;;;11.70;4.25;;;;;;;8.85;76.30;100204.50;5018523;28;20059;-89
2020/12/29 06:33:55;;;;;;;8.40;4.90;;;;;;;9.12;75.84;100205.25;5022459;28;20035;-89
2020/12/29 06:36:42;;;;;;;10.95;5.32;;;;;;;9.18;75.80;100213.16;5018676;28;20029;-89
2020/12/29 06:39:10;;;;;;;4.90;2.15;;;;;;;9.34;74.48;100230.44;5044342;28;20041;-89
2020/12/29 06:41:36;;;;;;;6.30;3.75;;;;;;;9.57;73.77;100218.53;5028126;28;20060;-88
2020/12/29 06:44:03;;;;;;;4.22;1.90;;;;;;;9.53;74.96;100218.16;5031869;28;20115;-89
2020/12/29 06:46:28;;;;;;;5.72;1.80;;;;;;;9.64;75.51;100227.25;5016407;28;20029;-88
2020/12/29 06:49:08;;;;;;;7.47;3.33;;;;;;;9.98;72.40;100239.31;5021371;28;20031;-88
2020/12/29 06:51:33;;;;;;;9.55;4.40;;;;;;;9.72;72.35;100234.16;5018432;28;20100;-88
2020/12/29 06:53:58;;;;;;;11.75;2.97;;;;;;;9.71;72.21;100235.97;5017594;28;20029;-89
2020/12/29 06:56:24;;;;;;;5.75;1.63;;;;;;;9.95;71.32;100242.38;5015180;28;20050;-87
2020/12/29 06:58:52;;;;;;;5.45;2.45;;;;;;;10.37;70.04;100240.09;5019724;28;20045;-87
2020/12/29 07:01:25;;;;;;;3.67;1.95;;;;;;;10.79;68.66;100253.66;5017762;28;20039;-88
2020/12/29 07:04:07;;;;;;;6.45;2.08;;;;;;;11.20;68.73;100258.34;5018651;28;20029;-89
2020/12/29 07:06:34;;;;;;;1.50;0.25;;;;;;;11.29;66.61;100266.84;5021205;28;20036;-88
2020/12/29 07:09:15;;;;;;;6.78;1.50;;;;;;;11.76;66.39;100264.44;5026421;28;20083;-93
2020/12/29 07:12:05;;;;;;;3.88;1.92;;;;;;;12.05;63.79;100262.06;5028930;28;20029;-89
2020/12/29 07:14:52;;;;;;;3.72;1.70;;;;;;;12.59;62.45;100260.22;5049426;28;20028;-91
2020/12/29 07:17:27;;;;;;;4.72;2.47;;;;;;;12.76;61.68;100258.47;5026131;28;20044;-90
2020/12/29 07:19:55;;;;;;;9.68;2.10;;;;;;;12.80;61.72;100261.50;5006923;28;20033;-91
2020/12/29 07:22:21;;;;;;;3.22;2.40;;;;;;;12.97;61.30;100274.94;5020205;28;20029;-91
2020/12/29 07:24:47;;;;;;;1.70;0.93;;;;;;;13.31;61.16;100281.31;5018567;28;20095;-90
2020/12/29 07:27:14;;;;;;;2.70;0.47;;;;;;;13.10;60.18;100288.03;5016794;28;20022;-91
2020/12/29 07:30:01;;;;;;;2.38;1.80;;;;;;;13.33;59.73;100281.88;5037753;28;20095;-90
2020/12/29 07:32:27;;;;;;;4.30;1.80;;;;;;;13.31;60.11;100286.63;5019117;28;20040;-91
2020/12/29 07:34:52;;;;;;;5.18;2.05;;;;;;;13.58;59.64;100286.13;5015795;28;20394;-88
2020/12/29 07:37:22;;;;;;;4.00;2.47;;;;;;;13.95;59.56;100271.41;5013906;28;20033;-88
2020/12/29 07:39:48;;;;;;;11.73;6.97;;;;;;;14.39;56.74;100278.81;5020965;28;20034;-89
2020/12/29 07:42:14;;;;;;;3.78;2.38;;;;;;;14.29;56.82;100282.16;5016255;28;20028;-89
2020/12/29 07:44:41;;;;;;;6.47;3.15;;;;;;;14.87;55.03;100286.31;5016764;28;20029;-89
2020/12/29 07:47:06;;;;;;;4.07;1.95;;;;;;;14.40;56.20;100283.94;5019981;28;20031;-89
2020/12/29 07:49:33;;;;;;;12.95;7.15;;;;;;;14.46;58.08;100292.84;5018300;28;20021;-89
2020/12/29 07:51:58;;;;;;;5.05;2.22;;;;;;;14.65;55.17;100304.16;5031355;28;20090;-90
2020/12/29 07:54:23;;;;;;;13.00;3.47;;;;;;;11.58;69.83;100302.50;5027097;28;20032;-87
2020/12/29 07:56:49;;;;;;;15.50;7.30;;;;;;;12.55;66.68;100294.47;5038821;28;20036;-89
2020/12/29 07:59:15;;;;;;;7.88;3.05;;;;;;;14.27;59.10;100300.25;5021194;28;20215;-88
2020/12/29 08:01:55;;;;;;;3.38;2.03;;;;;;;15.02;54.87;100296.44;5024081;28;20021;-90
2020/12/29 08:04:28;;;;;;;2.65;0.93;;;;;;;15.27;55.54;100303.19;5016763;28;20451;-90
2020/12/29 08:06:54;;;;;;;3.70;1.42;;;;;;;15.33;54.31;100294.97;5014164;28;20460;-89
2020/12/29 08:09:20;;;;;;;3.25;0.90;;;;;;;15.18;53.34;100294.78;5017198;28;20112;-89
2020/12/29 08:11:45;;;;;;;3.38;1.50;;;;;;;15.29;53.92;100288.50;5019634;28;20391;-89
2020/12/29 08:14:11;;;;;;;2.88;1.60;;;;;;;15.94;53.77;100294.13;5026734;28;20028;-90
2020/12/29 08:16:37;;;;;;;5.43;2.03;;;;;;;15.70;52.88;100294.41;5032991;28;20037;-90
2020/12/29 08:19:06;;;;;;;4.70;1.25;;;;;;;15.75;52.84;100307.84;5017252;28;20683;-89
2020/12/29 08:21:33;;;;;;;4.60;1.65;;;;;;;15.89;52.70;100307.47;5017158;28;20116;-90
2020/12/29 08:24:00;;;;;;;9.00;3.53;;;;;;;16.21;53.36;100311.00;5019454;28;20033;-89
2020/12/29 08:26:26;;;;;;;12.70;4.00;;;;;;;15.47;55.66;100306.16;5018224;28;20021;-90
2020/12/29 08:28:51;;;;;;;17.55;5.38;;;;;;;15.50;54.68;100308.31;5018680;28;20040;-89
2020/12/29 08:31:19;;;;;;;8.57;2.97;;;;;;;16.01;54.38;100311.63;5019881;28;20091;-87
2020/12/29 08:33:49;;;;;;;8.52;2.63;;;;;;;15.94;52.88;100302.16;5036114;28;20694;-89
2020/12/29 08:36:22;;;;;;;6.32;1.80;;;;;;;15.25;54.84;100302.63;5015002;28;20037;-89
2020/12/29 08:39:38;;;;;;;2.22;0.60;;;;;;;15.38;54.51;100314.84;5036080;28;20065;-89
2020/12/29 08:42:05;;;;;;;4.80;0.68;;;;;;;15.95;52.67;100315.31;5006868;28;20041;-86
2020/12/29 08:44:31;;;;;;;3.33;0.60;;;;;;;15.98;52.18;100312.13;4988770;28;20176;-86
2020/12/29 08:46:57;;;;;;;3.65;0.50;;;;;;;16.31;51.11;100306.81;5004403;28;20041;-85
2020/12/29 08:49:29;;;;;;;9.30;4.10;;;;;;;16.58;50.41;100304.94;5031962;28;20045;-86
2020/12/29 08:51:55;;;;;;;3.40;0.98;;;;;;;16.98;49.74;100306.34;5015580;28;20112;-85
2020/12/29 08:54:21;;;;;;;3.30;0.13;;;;;;;16.21;52.38;100302.19;5014642;28;20033;-88
2020/12/29 08:56:47;;;;;;;1.95;0.90;;;;;;;17.03;49.51;100300.19;5025911;28;20033;-80
2020/12/29 08:59:19;;;;;;;1.65;0.13;;;;;;;17.61;46.78;100304.53;5030222;28;20025;-80
2020/12/29 09:01:55;;;;;;;1.93;0.73;;;;;;;13.84;60.27;100308.81;5033130;28;20028;-81
2020/12/29 09:04:31;;;;;;;2.05;0.00;;;;;;;16.75;48.17;100304.00;5033565;28;20025;-79
2020/12/29 09:07:01;;;;;;;4.55;1.05;;;;;;;16.99;47.58;100304.47;5055826;28;20035;-79
2020/12/29 09:09:27;;;;;;;3.45;0.00;;;;;;;17.57;45.65;100308.00;5037308;28;20084;-79
2020/12/29 09:12:13;;;;;;;0.47;0.22;;;;;;;17.69;44.61;100299.72;5040481;28;20465;-81
2020/12/29 09:14:50;;;;;;;8.05;4.30;;;;;;;17.44;45.12;100301.22;5035995;28;20037;-85
2020/12/29 09:17:16;;;;;;;12.63;4.45;;;;;;;15.44;53.06;100301.28;5040071;28;20494;-82
2020/12/29 09:19:42;;;;;;;31.48;12.85;;;;;;;16.68;48.39;100294.28;5050202;28;20040;-81
2020/12/29 09:22:09;;;;;;;12.70;4.00;;;;;;;13.35;60.59;100316.34;5035640;28;20471;-82
2020/12/29 09:24:35;;;;;;;6.70;2.42;;;;;;;13.66;59.72;100315.94;5019105;28;20040;-82
2020/12/29 09:27:01;;;;;;;7.60;2.58;;;;;;;13.27;62.10;100306.81;5035708;28;20450;-81
2020/12/29 09:29:27;;;;;;;3.45;0.85;;;;;;;13.76;60.33;100307.31;5026422;28;20029;-81
2020/12/29 09:31:54;;;;;;;21.85;9.30;;;;;;;16.03;52.14;100295.28;5042315;28;20028;-79
2020/12/29 09:34:19;;;;;;;4.68;0.95;;;;;;;16.52;49.57;100299.78;5069162;28;20410;-81
2020/12/29 09:36:45;;;;;;;2.20;0.13;;;;;;;17.11;48.53;100310.44;5067245;28;20032;-81
2020/12/29 09:39:11;;;;;;;0.75;0.13;;;;;;;16.78;49.04;100314.25;5021616;28;20471;-81
2020/12/29 09:41:36;;;;;;;1.92;0.10;;;;;;;17.08;48.48;100309.09;5033865;28;20114;-81
2020/12/29 09:44:02;;;;;;;6.13;2.88;;;;;;;18.29;45.42;100304.47;5025303;28;20112;-81
2020/12/29 09:46:38;;;;;;;7.68;2.22;;;;;;;16.31;49.89;100304.97;5033097;28;20021;-82
2020/12/29 09:49:04;;;;;;;0.30;0.10;;;;;;;17.97;45.20;100304.69;5024401;28;20117;-80
2020/12/29 09:51:30;;;;;;;1.33;0.10;;;;;;;18.69;42.94;100313.63;5042688;28;20123;-82
2020/12/29 09:53:55;;;;;;;1.40;0.32;;;;;;;18.69;43.42;100310.13;5032123;28;20052;-82
2020/12/29 09:56:22;;;;;;;1.05;0.00;;;;;;;17.22;45.88;100314.81;5044589;28;20025;-81
2020/12/29 09:58:48;;;;;;;1.35;0.30;;;;;;;17.98;44.75;100319.72;5035066;28;20024;-81
2020/12/29 10:01:13;;;;;;;1.58;0.38;;;;;;;17.23;45.18;100326.34;5030705;28;20090;-83
2020/12/29 10:03:39;;;;;;;0.15;0.05;;;;;;;16.74;47.59;100313.13;5037259;28;20181;-81
2020/12/29 10:06:04;;;;;;;2.67;0.20;;;;;;;17.26;46.05;100315.91;5024191;28;20017;-82
2020/12/29 10:08:30;;;;;;;4.90;1.38;;;;;;;17.87;45.46;100322.66;5016932;28;20029;-82
2020/12/29 10:10:55;;;;;;;0.63;0.00;;;;;;;16.80;46.50;100330.88;5031657;28;20029;-83
2020/12/29 10:13:21;;;;;;;2.50;0.00;;;;;;;17.48;44.24;100321.09;5022829;28;20049;-82
2020/12/29 10:15:46;;;;;;;1.52;0.30;;;;;;;17.52;45.50;100326.75;5016900;28;20029;-82
2020/12/29 10:18:12;;;;;;;1.88;0.30;;;;;;;17.62;46.46;100324.13;5016372;28;20415;-80
2020/12/29 10:20:37;;;;;;;2.17;0.47;;;;;;;17.68;44.41;100335.72;5025473;28;20482;-81
2020/12/29 10:23:02;;;;;;;6.18;2.38;;;;;;;17.96;43.54;100342.56;5017578;28;20475;-83
2020/12/29 10:25:28;;;;;;;2.75;0.50;;;;;;;17.13;45.50;100343.19;5033945;28;20024;-83
2020/12/29 10:27:53;;;;;;;2.80;0.60;;;;;;;17.56;44.26;100347.47;5034294;28;20023;-81
2020/12/29 10:30:19;;;;;;;2.78;0.60;;;;;;;17.49;46.11;100338.84;5023528;28;20029;-80
2020/12/29 10:32:44;;;;;;;3.22;0.88;;;;;;;17.15;47.19;100339.16;5035771;28;20120;-82
2020/12/29 10:35:10;;;;;;;4.30;0.45;;;;;;;17.66;45.62;100340.53;5027138;28;20024;-82
2020/12/29 10:37:35;;;;;;;2.90;0.73;;;;;;;17.44;46.67;100330.75;5016246;28;20044;-82
2020/12/29 10:40:01;;;;;;;1.90;0.35;;;;;;;17.16;46.47;100338.13;5036077;28;20048;-82
2020/12/29 10:42:26;;;;;;;1.45;0.60;;;;;;;17.24;46.79;100341.38;5029059;28;20025;-79
2020/12/29 10:44:52;;;;;;;4.05;0.30;;;;;;;18.02;45.02;100339.63;5015950;28;20483;-81
2020/12/29 10:47:17;;;;;;;3.97;0.10;;;;;;;17.01;47.26;100340.69;5031888;28;20112;-83
2020/12/29 10:49:43;;;;;;;1.17;0.20;;;;;;;17.68;46.03;100346.47;5053525;28;20040;-81
2020/12/29 10:52:08;;;;;;;2.05;0.28;;;;;;;17.74;46.70;100342.72;5052206;28;20025;-81
2020/12/29 10:54:33;;;;;;;2.75;0.40;;;;;;;17.34;47.65;100339.56;5034377;28;20067;-82
2020/12/29 10:56:59;;;;;;;2.15;0.17;;;;;;;18.06;46.07;100340.72;5053232;28;20032;-82
2020/12/29 10:59:24;;;;;;;1.45;0.10;;;;;;;18.82;43.47;100346.47;5060898;28;20107;-81
2020/12/29 11:01:55;;;;;;;0.50;0.00;;;;;;;18.35;45.90;100345.63;5030204;28;20468;-81
2020/12/29 11:04:22;;;;;;;1.55;0.55;;;;;;;18.64;45.94;100358.53;5035564;28;20029;-83
2020/12/29 11:06:47;;;;;;;1.00;0.35;;;;;;;19.02;43.62;100349.16;5035479;28;20025;-84
2020/12/29 11:09:12;;;;;;;1.13;0.00;;;;;;;18.41;43.94;100358.00;5020360;28;20093;-84
2020/12/29 11:11:38;;;;;;;2.75;0.30;;;;;;;18.94;43.32;100360.47;5015595;28;20033;-82
2020/12/29 11:14:03;;;;;;;2.33;1.40;;;;;;;20.11;41.61;100356.66;5015868;28;20544;-81
2020/12/29 11:16:28;;;;;;;4.20;2.45;;;;;;;20.58;39.12;100355.31;5021102;28;20038;-82
2020/12/29 11:18:54;;;;;;;4.15;2.60;;;;;;;20.13;40.06;100355.31;5019133;28;20740;-80
2020/12/29 11:21:20;;;;;;;2.50;0.70;;;;;;;19.27;40.28;100361.78;5021220;28;20039;-82
2020/12/29 11:23:47;;;;;;;3.13;0.75;;;;;;;19.06;42.52;100373.66;5023108;28;20026;-82
2020/12/29 11:26:16;;;;;;;2.15;0.20;;;;;;;17.98;44.71;100391.47;5022018;28;20021;-83
2020/12/29 11:28:42;;;;;;;2.58;0.47;;;;;;;17.12;51.16;100416.69;5019734;28;20159;-82
2020/12/29 11:31:16;;;;;;;4.95;1.63;;;;;;;15.48;58.65;100441.56;5018849;28;20021;-83
2020/12/29 11:33:42;;;;;;;7.22;2.42;;;;;;;13.79;64.86;100447.50;5009131;28;20053;-82